Weather History for Beaver Island, MI

Change the Weather History Date:

Wednesday, February 13, 2013

  Actual Average Record
Temperature  
Mean Temperature 30 °F -  
Max Temperature 34 °F 26 °F 46 °F (1990)
Min Temperature 27 °F 8 °F -15 °F (1968)
Degree Days  
Heating Degree Days 34    
Moisture  
Dew Point 28 °F    
Average Humidity 87    
Maximum Humidity 92    
Minimum Humidity 78    
Precipitation  
Precipitation 0.00 in - - ()
Sea Level Pressure  
Sea Level Pressure 29.67 in    
Wind  
Wind Speed 12 mph (SW)    
Max Wind Speed 17 mph    
Max Gust Speed 22 mph    
Visibility 8 miles    
Events      
Averages and records for this station are not official NWS values.
T = Trace of Precipitation, MM = Missing Value Source: NWS Daily Summary

Daily Weather History Graph

Daily Weather History Graph

Search for Another Location

Airport:

Trip Planner

Search our weather history database for the weather conditions in past years. The results will help you decide how hot, cold, wet, or windy it might be!

Date:

Astronomy

Feb. 13, 2013 Rise Set
Actual Time 7:47 AM EST 6:06 PM EST
Civil Twilight 7:16 AM EST 6:37 PM EST
Nautical Twilight 6:41 AM EST 7:12 PM EST
Astronomical Twilight 6:07 AM EST 7:46 PM EST
Moon 9:01 AM EST (2/13) 10:24 PM EST (2/13)
Length of Visible Light 11h 20m
Length of Day
10h 19m
Waxing Crescent, 13% of the Moon is Illuminated
Feb 13
Waxing Crescent
Feb 17
First Quarter
Feb 25
Full
Mar 4
Last Quarter
Mar 11
New

Hourly Weather History & Observations

Time (EST) Temp. Windchill Dew Point Humidity Pressure Visibility Wind Dir Wind Speed Gust Speed Precip Events Conditions
12:15 AM 28.0 °F 17.0 °F 22.1 °F 78% 29.79 in 10.0 mi WSW 13.8 mph - N/A   Overcast
12:36 AM 27.7 °F 16.1 °F 22.3 °F 80% 29.78 in 10.0 mi WSW 15.0 mph - N/A   Overcast
12:55 AM 27.9 °F 19.1 °F 22.1 °F 79% 29.78 in 10.0 mi SW 9.2 mph - N/A   Overcast
1:16 AM 28.2 °F 17.7 °F 22.8 °F 80% 29.77 in 10.0 mi SW 12.7 mph 19.6 mph N/A   Mostly Cloudy
1:35 AM 28.2 °F 17.2 °F 23.0 °F 81% 29.76 in 10.0 mi WSW 13.8 mph 19.6 mph N/A   Overcast
1:55 AM 28.9 °F 18.2 °F 23.5 °F 80% 29.75 in 10.0 mi WSW 13.8 mph 20.7 mph N/A   Overcast
2:16 AM 29.1 °F 19.4 °F 23.9 °F 81% 29.75 in 10.0 mi SW 11.5 mph - N/A   Overcast
2:35 AM 29.3 °F 19.1 °F 24.4 °F 82% 29.74 in 10.0 mi SW 12.7 mph - N/A   Overcast
2:55 AM 30.0 °F 20.5 °F 25.2 °F 82% 29.74 in 10.0 mi SW 11.5 mph 18.4 mph N/A   Overcast
3:16 AM 30.7 °F 21.4 °F 26.1 °F 83% 29.73 in 10.0 mi SW 11.5 mph 19.6 mph N/A   Overcast
3:35 AM 30.7 °F 20.4 °F 26.1 °F 83% 29.72 in 10.0 mi SW 13.8 mph - N/A   Overcast
3:55 AM 30.7 °F 20.4 °F 26.2 °F 83% 29.72 in 10.0 mi SW 13.8 mph 19.6 mph N/A   Overcast
4:16 AM 30.7 °F 21.4 °F 26.1 °F 83% 29.71 in 10.0 mi SW 11.5 mph - N/A   Overcast
4:35 AM 30.0 °F 21.1 °F 25.5 °F 83% 29.71 in 10.0 mi SW 10.4 mph - N/A   Scattered Clouds
4:56 AM 29.5 °F 20.4 °F 25.7 °F 86% 29.71 in 10.0 mi SW 10.4 mph - N/A   Scattered Clouds
5:16 AM 29.3 °F 20.2 °F 25.7 °F 86% 29.70 in 10.0 mi SW 10.4 mph 17.3 mph N/A   Scattered Clouds
5:35 AM 29.3 °F 19.1 °F 25.7 °F 86% 29.70 in 10.0 mi SW 12.7 mph 17.3 mph N/A   Scattered Clouds
5:56 AM 30.2 °F 20.8 °F 26.4 °F 86% 29.69 in 10.0 mi SW 11.5 mph 18.4 mph N/A   Mostly Cloudy
6:16 AM 30.7 °F 22.0 °F 27.0 °F 86% 29.68 in 10.0 mi SW 10.4 mph - N/A   Mostly Cloudy
6:35 AM 30.4 °F 20.5 °F 26.8 °F 86% 29.68 in 10.0 mi WSW 12.7 mph - N/A   Scattered Clouds
6:56 AM 30.7 °F 20.9 °F 27.3 °F 87% 29.68 in 10.0 mi WSW 12.7 mph 19.6 mph N/A   Overcast
7:15 AM 30.9 °F 21.2 °F 27.5 °F 87% 29.68 in 10.0 mi SW 12.7 mph 19.6 mph N/A   Overcast
7:36 AM 31.1 °F 21.4 °F 27.9 °F 88% 29.68 in 10.0 mi WSW 12.7 mph - N/A   Overcast
7:56 AM 31.3 °F 21.6 °F 28.0 °F 88% 29.67 in 7.0 mi WSW 12.7 mph 17.3 mph N/A   Overcast
8:15 AM 31.1 °F 20.9 °F 28.0 °F 88% 29.68 in 7.0 mi WSW 13.8 mph - N/A   Overcast
8:36 AM 31.1 °F 21.9 °F 28.2 °F 89% 29.67 in 7.0 mi SW 11.5 mph 17.3 mph N/A   Overcast
8:56 AM 31.5 °F 22.3 °F 28.0 °F 87% 29.67 in 7.0 mi SW 11.5 mph 18.4 mph N/A   Overcast
9:15 AM 31.5 °F 22.3 °F 28.4 °F 88% 29.67 in 7.0 mi SW 11.5 mph 18.4 mph N/A   Overcast
9:35 AM 31.5 °F 21.8 °F 28.6 °F 89% 29.66 in 7.0 mi SW 12.7 mph - N/A   Overcast
9:56 AM 31.6 °F 22.6 °F 28.8 °F 89% 29.66 in 5.0 mi WSW 11.5 mph - N/A   Overcast
10:15 AM 31.6 °F 22.1 °F 28.4 °F 88% 29.66 in 7.0 mi WSW 12.7 mph - N/A   Overcast
10:35 AM 31.5 °F 21.8 °F 28.4 °F 88% 29.65 in 5.0 mi WSW 12.7 mph - N/A   Overcast
10:56 AM 31.8 °F 20.6 °F 28.8 °F 88% 29.66 in 5.0 mi WSW 17.3 mph 21.9 mph N/A   Overcast
11:15 AM 31.6 °F 21.6 °F 28.4 °F 88% 29.66 in 7.0 mi WSW 13.8 mph 18.4 mph N/A   Mostly Cloudy
11:36 AM 32.0 °F 22.1 °F 28.4 °F 87% 29.66 in 7.0 mi WSW 13.8 mph 17.3 mph N/A   Mostly Cloudy
11:56 AM 32.4 °F 21.7 °F 28.9 °F 87% 29.66 in 7.0 mi WSW 16.1 mph - N/A   Mostly Cloudy
12:15 PM 32.0 °F 21.2 °F 28.2 °F 86% 29.66 in 5.0 mi WSW 16.1 mph 19.6 mph N/A   Overcast
12:36 PM 32.0 °F 21.2 °F 28.4 °F 87% 29.65 in 7.0 mi WSW 16.1 mph 19.6 mph N/A   Mostly Cloudy
12:55 PM 32.5 °F 21.9 °F 28.8 °F 86% 29.65 in 7.0 mi SW 16.1 mph 21.9 mph N/A   Overcast
1:16 PM 32.0 °F 22.1 °F 28.4 °F 87% 29.64 in 7.0 mi SW 13.8 mph 20.7 mph N/A   Overcast
1:36 PM 32.0 °F 23.0 °F 28.4 °F 87% 29.64 in 5.0 mi SW 11.5 mph - N/A   Overcast
1:55 PM 32.0 °F 21.6 °F 28.9 °F 88% 29.64 in 7.0 mi WSW 15.0 mph 19.6 mph N/A   Overcast
2:16 PM 32.0 °F 22.5 °F 28.9 °F 88% 29.64 in 7.0 mi WSW 12.7 mph 18.4 mph N/A   Overcast
2:36 PM 32.0 °F 21.6 °F 28.9 °F 88% 29.64 in 7.0 mi WSW 15.0 mph 20.7 mph N/A   Overcast
2:55 PM 32.4 °F 22.1 °F 29.3 °F 88% 29.63 in 7.0 mi SW 15.0 mph 20.7 mph N/A   Overcast
3:16 PM 32.5 °F 22.7 °F 29.8 °F 90% 29.63 in 7.0 mi WSW 13.8 mph - N/A   Overcast
3:35 PM 32.9 °F 24.1 °F 29.8 °F 88% 29.64 in 7.0 mi SW 11.5 mph - N/A   Overcast
3:55 PM 32.9 °F 24.7 °F 30.0 °F 89% 29.64 in 5.0 mi SW 10.4 mph - N/A   Overcast
4:16 PM 32.9 °F 24.7 °F 30.6 °F 91% 29.65 in 5.0 mi WSW 10.4 mph 16.1 mph N/A   Overcast
4:35 PM 32.9 °F 23.7 °F 30.7 °F 92% 29.65 in 5.0 mi WSW 12.7 mph - N/A   Overcast
4:55 PM 33.3 °F 24.6 °F 31.1 °F 92% 29.65 in 5.0 mi SW 11.5 mph - N/A   Overcast
5:15 PM 33.1 °F 23.4 °F 30.7 °F 91% 29.64 in 7.0 mi SW 13.8 mph 19.6 mph N/A   Overcast
5:35 PM 33.1 °F 25.5 °F 30.7 °F 91% 29.65 in 7.0 mi SW 9.2 mph - N/A   Overcast
5:56 PM 33.1 °F 24.9 °F 30.7 °F 91% 29.64 in 7.0 mi SW 10.4 mph 16.1 mph N/A   Overcast
6:15 PM 33.3 °F 24.1 °F 31.1 °F 92% 29.64 in 7.0 mi SW 12.7 mph 16.1 mph N/A   Overcast
6:35 PM 33.4 °F 24.8 °F 31.3 °F 92% 29.64 in 7.0 mi SW 11.5 mph - N/A   Overcast
6:56 PM 33.6 °F 25.6 °F 31.1 °F 90% 29.65 in 7.0 mi SW 10.4 mph - N/A   Overcast
7:15 PM 33.8 °F 26.4 °F 31.1 °F 90% 29.64 in 7.0 mi SSW 9.2 mph - N/A   Overcast
7:36 PM 33.8 °F 25.3 °F 31.1 °F 90% 29.65 in 7.0 mi SSW 11.5 mph - N/A   Overcast
7:55 PM 33.8 °F 27.0 °F 31.1 °F 90% 29.65 in 10.0 mi SSW 8.1 mph - N/A   Overcast
8:16 PM 33.8 °F 27.7 °F 30.9 °F 89% 29.65 in 10.0 mi SSW 6.9 mph - N/A   Overcast
8:35 PM 33.8 °F 28.6 °F 31.1 °F 90% 29.65 in 10.0 mi South 5.8 mph - N/A   Overcast
8:56 PM 33.8 °F 29.6 °F 31.3 °F 90% 29.65 in 7.0 mi South 4.6 mph - N/A   Overcast
9:16 PM 33.8 °F 27.7 °F 31.8 °F 92% 29.65 in 7.0 mi SSW 6.9 mph - N/A   Overcast
9:35 PM 34.2 °F 27.5 °F 32.0 °F 92% 29.65 in 7.0 mi SSW 8.1 mph - N/A   Overcast
9:56 PM 34.2 °F 28.2 °F 32.0 °F 92% 29.65 in 7.0 mi South 6.9 mph - N/A   Overcast
10:15 PM 34.2 °F 26.2 °F 32.0 °F 92% 29.65 in 7.0 mi SSW 10.4 mph - N/A   Overcast
10:36 PM 34.3 °F 27.7 °F 32.0 °F 91% 29.65 in 7.0 mi SW 8.1 mph - N/A   Overcast
10:56 PM 34.2 °F 28.2 °F 32.0 °F 92% 29.64 in 7.0 mi SW 6.9 mph - N/A   Overcast
11:15 PM 33.8 °F 29.6 °F 31.5 °F 91% 29.63 in 7.0 mi SW 4.6 mph - N/A   Overcast
11:36 PM 33.8 °F 28.6 °F 31.1 °F 90% 29.63 in 7.0 mi SSW 5.8 mph - N/A   Overcast
11:55 PM 33.3 °F 27.9 °F 30.7 °F 90% 29.63 in 7.0 mi SW 5.8 mph - N/A   Mostly Cloudy